Coroaci, Brazil
Current Conditions -  °F | °C
As of 5:10 PM on Sunday 21 Dec 2014 (Local Time) from SBLS Reporting Station
Thunderstorm Thunderstorm  
Wind Chill: 70°   Ceiling: 3000
Heat Index: 70°   Visibility: 4mi
Dew Point: 68°   Wind: 3mph
Humidity: 94%   Direction: 240°WSW
Pressure: 29.97"   Gusts: NA
Location:  18.62°S, 42.29°W
Report Text: SBLS 211910Z 24003KT 6000 -TSRA BKN030 FEW035CB SCT090 21/20 Q1015
Loading
Personal Weather Stations






























Interactive Weather Map New forecast layout! Learn more

10-Day Weather Forecast

Advertisements
Track Severe Weather on mobile